sensor_id;sensor_type;location;lat;lon;timestamp;pressure;altitude;pressure_sealevel;temperature;humidity
48652;BME280;34442;52.362;-1.302;2023-03-04T00:02:08;101769.66;;;7.66;86.29
48652;BME280;34442;52.362;-1.302;2023-03-04T00:04:34;101778.59;;;7.39;88.16
48652;BME280;34442;52.362;-1.302;2023-03-04T00:06:59;101784.47;;;7.43;87.97
48652;BME280;34442;52.362;-1.302;2023-03-04T00:09:25;101777.84;;;7.47;87.79
48652;BME280;34442;52.362;-1.302;2023-03-04T00:11:51;101784.28;;;7.54;86.65
48652;BME280;34442;52.362;-1.302;2023-03-04T00:14:16;101788.63;;;7.55;86.77
48652;BME280;34442;52.362;-1.302;2023-03-04T00:16:41;101783.72;;;7.51;87.04
48652;BME280;34442;52.362;-1.302;2023-03-04T00:19:09;101783.47;;;7.44;87.60
48652;BME280;34442;52.362;-1.302;2023-03-04T00:21:34;101789.06;;;7.33;87.63
48652;BME280;34442;52.362;-1.302;2023-03-04T00:24:00;101787.00;;;7.44;87.45
48652;BME280;34442;52.362;-1.302;2023-03-04T00:26:25;101800.53;;;7.43;86.47
48652;BME280;34442;52.362;-1.302;2023-03-04T00:28:50;101791.41;;;7.36;87.03
48652;BME280;34442;52.362;-1.302;2023-03-04T00:31:16;101799.16;;;7.39;86.99
48652;BME280;34442;52.362;-1.302;2023-03-04T00:33:41;101797.03;;;7.42;86.49
48652;BME280;34442;52.362;-1.302;2023-03-04T00:36:09;101794.09;;;7.36;87.45
48652;BME280;34442;52.362;-1.302;2023-03-04T00:38:34;101790.84;;;7.60;86.10
48652;BME280;34442;52.362;-1.302;2023-03-04T00:40:59;101783.91;;;7.67;85.08
48652;BME280;34442;52.362;-1.302;2023-03-04T00:43:25;101799.25;;;7.65;85.37
48652;BME280;34442;52.362;-1.302;2023-03-04T00:45:50;101798.88;;;7.60;86.08
48652;BME280;34442;52.362;-1.302;2023-03-04T00:48:15;101794.34;;;7.60;85.44
48652;BME280;34442;52.362;-1.302;2023-03-04T00:50:44;101796.41;;;7.49;86.55
48652;BME280;34442;52.362;-1.302;2023-03-04T00:53:10;101796.91;;;7.62;85.87
48652;BME280;34442;52.362;-1.302;2023-03-04T00:55:35;101792.44;;;7.53;86.33
48652;BME280;34442;52.362;-1.302;2023-03-04T00:58:01;101796.56;;;7.65;85.81
48652;BME280;34442;52.362;-1.302;2023-03-04T01:00:26;101792.91;;;7.66;85.91
48652;BME280;34442;52.362;-1.302;2023-03-04T01:02:52;101789.16;;;7.59;86.12
48652;BME280;34442;52.362;-1.302;2023-03-04T01:05:17;101788.69;;;7.63;86.05
48652;BME280;34442;52.362;-1.302;2023-03-04T01:07:43;101793.84;;;7.75;86.17
48652;BME280;34442;52.362;-1.302;2023-03-04T01:10:11;101794.44;;;7.68;86.22
48652;BME280;34442;52.362;-1.302;2023-03-04T01:12:37;101794.97;;;7.72;86.53
48652;BME280;34442;52.362;-1.302;2023-03-04T01:15:05;101799.31;;;7.55;87.30
48652;BME280;34442;52.362;-1.302;2023-03-04T01:17:30;101795.28;;;7.51;87.88
48652;BME280;34442;52.362;-1.302;2023-03-04T01:19:55;101790.00;;;7.59;87.53
48652;BME280;34442;52.362;-1.302;2023-03-04T01:22:21;101797.66;;;7.54;88.14
48652;BME280;34442;52.362;-1.302;2023-03-04T01:24:47;101793.50;;;7.60;88.10
48652;BME280;34442;52.362;-1.302;2023-03-04T01:27:12;101788.00;;;7.43;87.76
48652;BME280;34442;52.362;-1.302;2023-03-04T01:29:38;101790.75;;;7.52;87.53
48652;BME280;34442;52.362;-1.302;2023-03-04T01:32:03;101795.53;;;7.58;87.55
48652;BME280;34442;52.362;-1.302;2023-03-04T01:34:29;101780.84;;;7.62;87.64
48652;BME280;34442;52.362;-1.302;2023-03-04T01:36:55;101789.72;;;7.62;86.97
48652;BME280;34442;52.362;-1.302;2023-03-04T01:39:20;101777.75;;;7.39;87.91
48652;BME280;34442;52.362;-1.302;2023-03-04T01:41:46;101774.56;;;7.53;87.63
48652;BME280;34442;52.362;-1.302;2023-03-04T01:44:11;101766.09;;;7.58;87.66
48652;BME280;34442;52.362;-1.302;2023-03-04T01:46:40;101769.34;;;7.34;89.34
48652;BME280;34442;52.362;-1.302;2023-03-04T01:49:08;101769.13;;;7.45;88.39
48652;BME280;34442;52.362;-1.302;2023-03-04T01:51:36;101761.88;;;7.55;87.80
48652;BME280;34442;52.362;-1.302;2023-03-04T01:54:02;101755.03;;;7.61;87.80
48652;BME280;34442;52.362;-1.302;2023-03-04T01:56:35;101760.41;;;7.61;86.97
48652;BME280;34442;52.362;-1.302;2023-03-04T01:59:20;101756.50;;;7.55;87.21
48652;BME280;34442;52.362;-1.302;2023-03-04T02:01:52;101750.56;;;7.61;87.68
48652;BME280;34442;52.362;-1.302;2023-03-04T02:04:20;101749.31;;;7.56;88.43
48652;BME280;34442;52.362;-1.302;2023-03-04T02:06:47;101755.38;;;7.58;88.31
48652;BME280;34442;52.362;-1.302;2023-03-04T02:09:14;101748.09;;;7.50;88.44
48652;BME280;34442;52.362;-1.302;2023-03-04T02:11:40;101746.88;;;7.44;88.35
48652;BME280;34442;52.362;-1.302;2023-03-04T02:14:07;101747.56;;;7.29;88.33
48652;BME280;34442;52.362;-1.302;2023-03-04T02:16:32;101741.13;;;7.39;87.83
48652;BME280;34442;52.362;-1.302;2023-03-04T02:18:58;101744.28;;;7.35;88.12
48652;BME280;34442;52.362;-1.302;2023-03-04T02:21:29;101742.13;;;7.38;88.35
48652;BME280;34442;52.362;-1.302;2023-03-04T02:26:49;101747.56;;;7.46;86.59
48652;BME280;34442;52.362;-1.302;2023-03-04T02:29:16;101735.88;;;7.47;87.45
48652;BME280;34442;52.362;-1.302;2023-03-04T02:31:49;101740.75;;;7.52;87.00
48652;BME280;34442;52.362;-1.302;2023-03-04T02:34:21;101736.78;;;7.38;86.96
48652;BME280;34442;52.362;-1.302;2023-03-04T02:36:50;101733.50;;;7.27;87.87
48652;BME280;34442;52.362;-1.302;2023-03-04T02:39:24;101727.59;;;7.77;85.19
48652;BME280;34442;52.362;-1.302;2023-03-04T02:41:53;101733.66;;;7.43;86.27
48652;BME280;34442;52.362;-1.302;2023-03-04T02:44:30;101729.66;;;7.65;84.41
48652;BME280;34442;52.362;-1.302;2023-03-04T02:46:57;101731.88;;;7.87;83.79
48652;BME280;34442;52.362;-1.302;2023-03-04T02:49:24;101730.19;;;7.68;85.28
48652;BME280;34442;52.362;-1.302;2023-03-04T02:51:51;101721.97;;;7.62;84.98
48652;BME280;34442;52.362;-1.302;2023-03-04T02:54:22;101712.72;;;7.38;86.50
48652;BME280;34442;52.362;-1.302;2023-03-04T02:56:52;101730.72;;;7.72;85.16
48652;BME280;34442;52.362;-1.302;2023-03-04T02:59:18;101731.19;;;7.67;84.94
48652;BME280;34442;52.362;-1.302;2023-03-04T03:01:44;101727.06;;;7.73;85.06
48652;BME280;34442;52.362;-1.302;2023-03-04T03:04:10;101728.34;;;7.69;84.39
48652;BME280;34442;52.362;-1.302;2023-03-04T03:06:35;101723.41;;;7.56;85.49
48652;BME280;34442;52.362;-1.302;2023-03-04T03:09:01;101728.47;;;7.41;87.24
48652;BME280;34442;52.362;-1.302;2023-03-04T03:11:27;101722.50;;;7.47;86.63
48652;BME280;34442;52.362;-1.302;2023-03-04T03:13:52;101716.47;;;7.45;86.42
48652;BME280;34442;52.362;-1.302;2023-03-04T03:16:17;101717.50;;;7.53;86.82
48652;BME280;34442;52.362;-1.302;2023-03-04T03:18:43;101717.84;;;7.50;87.14
48652;BME280;34442;52.362;-1.302;2023-03-04T03:21:08;101716.88;;;7.77;85.11
48652;BME280;34442;52.362;-1.302;2023-03-04T03:23:33;101719.81;;;7.47;86.48
48652;BME280;34442;52.362;-1.302;2023-03-04T03:25:59;101714.22;;;7.59;86.23
48652;BME280;34442;52.362;-1.302;2023-03-04T03:28:25;101717.97;;;7.48;85.75
48652;BME280;34442;52.362;-1.302;2023-03-04T03:30:51;101718.06;;;7.74;84.96
48652;BME280;34442;52.362;-1.302;2023-03-04T03:33:16;101713.91;;;7.80;84.93
48652;BME280;34442;52.362;-1.302;2023-03-04T03:35:41;101713.78;;;7.45;85.11
48652;BME280;34442;52.362;-1.302;2023-03-04T03:38:07;101709.81;;;7.50;86.18
48652;BME280;34442;52.362;-1.302;2023-03-04T03:40:32;101704.13;;;7.70;84.87
48652;BME280;34442;52.362;-1.302;2023-03-04T03:42:57;101707.34;;;7.56;86.04
48652;BME280;34442;52.362;-1.302;2023-03-04T03:45:23;101703.59;;;7.67;85.21
48652;BME280;34442;52.362;-1.302;2023-03-04T03:47:48;101706.66;;;7.54;85.99
48652;BME280;34442;52.362;-1.302;2023-03-04T03:50:13;101705.75;;;7.63;84.78
48652;BME280;34442;52.362;-1.302;2023-03-04T03:52:39;101703.78;;;7.30;85.50
48652;BME280;34442;52.362;-1.302;2023-03-04T03:55:04;101706.81;;;7.53;84.63
48652;BME280;34442;52.362;-1.302;2023-03-04T03:57:30;101703.47;;;7.51;84.25
48652;BME280;34442;52.362;-1.302;2023-03-04T03:59:55;101701.84;;;7.58;83.84
48652;BME280;34442;52.362;-1.302;2023-03-04T04:02:21;101698.47;;;7.56;83.85
48652;BME280;34442;52.362;-1.302;2023-03-04T04:04:47;101708.59;;;7.62;83.58
48652;BME280;34442;52.362;-1.302;2023-03-04T04:07:12;101703.16;;;7.54;83.99
48652;BME280;34442;52.362;-1.302;2023-03-04T04:09:38;101704.38;;;7.59;83.62
48652;BME280;34442;52.362;-1.302;2023-03-04T04:12:05;101702.38;;;7.43;83.65
48652;BME280;34442;52.362;-1.302;2023-03-04T04:14:31;101698.34;;;7.39;84.11
48652;BME280;34442;52.362;-1.302;2023-03-04T04:16:56;101701.19;;;7.38;83.68
48652;BME280;34442;52.362;-1.302;2023-03-04T04:19:22;101705.97;;;7.52;83.07
48652;BME280;34442;52.362;-1.302;2023-03-04T04:21:47;101709.47;;;7.53;82.66
48652;BME280;34442;52.362;-1.302;2023-03-04T04:24:12;101706.44;;;7.47;83.34
48652;BME280;34442;52.362;-1.302;2023-03-04T04:26:38;101703.00;;;7.37;83.34
48652;BME280;34442;52.362;-1.302;2023-03-04T04:29:03;101703.69;;;7.39;83.83
48652;BME280;34442;52.362;-1.302;2023-03-04T04:31:29;101709.09;;;7.47;83.18
48652;BME280;34442;52.362;-1.302;2023-03-04T04:33:54;101708.66;;;7.52;83.55
48652;BME280;34442;52.362;-1.302;2023-03-04T04:36:20;101718.50;;;7.52;82.68
48652;BME280;34442;52.362;-1.302;2023-03-04T04:38:45;101717.91;;;7.40;83.37
48652;BME280;34442;52.362;-1.302;2023-03-04T04:41:20;101708.97;;;7.31;82.11
48652;BME280;34442;52.362;-1.302;2023-03-04T04:43:46;101714.09;;;7.42;83.36
48652;BME280;34442;52.362;-1.302;2023-03-04T04:46:12;101718.91;;;7.39;82.46
48652;BME280;34442;52.362;-1.302;2023-03-04T04:48:37;101715.09;;;7.41;82.90
48652;BME280;34442;52.362;-1.302;2023-03-04T04:51:03;101721.28;;;7.42;82.09
48652;BME280;34442;52.362;-1.302;2023-03-04T04:53:28;101712.53;;;7.40;82.82
48652;BME280;34442;52.362;-1.302;2023-03-04T04:55:54;101716.38;;;7.37;82.98
48652;BME280;34442;52.362;-1.302;2023-03-04T04:58:19;101718.59;;;7.42;82.74
48652;BME280;34442;52.362;-1.302;2023-03-04T05:00:45;101721.78;;;7.63;82.13
48652;BME280;34442;52.362;-1.302;2023-03-04T05:03:10;101727.06;;;7.55;81.91
48652;BME280;34442;52.362;-1.302;2023-03-04T05:05:35;101723.88;;;7.34;83.47
48652;BME280;34442;52.362;-1.302;2023-03-04T05:08:01;101729.13;;;7.26;83.97
48652;BME280;34442;52.362;-1.302;2023-03-04T05:10:26;101726.00;;;7.30;84.44
48652;BME280;34442;52.362;-1.302;2023-03-04T05:12:51;101733.09;;;7.21;85.61
48652;BME280;34442;52.362;-1.302;2023-03-04T05:15:17;101730.34;;;7.13;86.03
48652;BME280;34442;52.362;-1.302;2023-03-04T05:17:42;101736.72;;;7.03;86.10
48652;BME280;34442;52.362;-1.302;2023-03-04T05:20:08;101731.81;;;6.80;87.50
48652;BME280;34442;52.362;-1.302;2023-03-04T05:22:34;101738.25;;;6.87;86.83
48652;BME280;34442;52.362;-1.302;2023-03-04T05:25:00;101744.13;;;6.91;86.34
48652;BME280;34442;52.362;-1.302;2023-03-04T05:27:25;101753.19;;;7.08;85.91
48652;BME280;34442;52.362;-1.302;2023-03-04T05:29:51;101740.41;;;7.02;85.60
48652;BME280;34442;52.362;-1.302;2023-03-04T05:32:16;101740.47;;;6.92;85.62
48652;BME280;34442;52.362;-1.302;2023-03-04T05:34:41;101743.53;;;6.97;85.37
48652;BME280;34442;52.362;-1.302;2023-03-04T05:37:07;101743.25;;;7.18;84.79
48652;BME280;34442;52.362;-1.302;2023-03-04T05:39:32;101742.59;;;6.88;86.20
48652;BME280;34442;52.362;-1.302;2023-03-04T05:41:57;101740.69;;;6.99;85.59
48652;BME280;34442;52.362;-1.302;2023-03-04T05:44:23;101744.16;;;7.09;85.50
48652;BME280;34442;52.362;-1.302;2023-03-04T05:46:48;101745.78;;;7.19;85.43
48652;BME280;34442;52.362;-1.302;2023-03-04T05:49:13;101749.34;;;7.10;85.11
48652;BME280;34442;52.362;-1.302;2023-03-04T05:51:39;101744.09;;;7.18;85.58
48652;BME280;34442;52.362;-1.302;2023-03-04T05:54:04;101744.09;;;7.18;85.07
48652;BME280;34442;52.362;-1.302;2023-03-04T05:56:29;101738.13;;;7.07;84.91
48652;BME280;34442;52.362;-1.302;2023-03-04T05:58:57;101741.13;;;7.04;86.71
48652;BME280;34442;52.362;-1.302;2023-03-04T06:01:23;101729.81;;;7.10;85.97
48652;BME280;34442;52.362;-1.302;2023-03-04T06:03:48;101743.88;;;7.12;86.31
48652;BME280;34442;52.362;-1.302;2023-03-04T06:06:14;101739.13;;;7.06;86.65
48652;BME280;34442;52.362;-1.302;2023-03-04T06:08:39;101738.53;;;6.84;87.51
48652;BME280;34442;52.362;-1.302;2023-03-04T06:11:05;101746.09;;;6.89;87.78
48652;BME280;34442;52.362;-1.302;2023-03-04T06:13:31;101745.38;;;6.96;87.44
48652;BME280;34442;52.362;-1.302;2023-03-04T06:15:57;101742.41;;;7.00;87.10
48652;BME280;34442;52.362;-1.302;2023-03-04T06:18:24;101744.13;;;6.91;87.21
48652;BME280;34442;52.362;-1.302;2023-03-04T06:20:50;101749.03;;;6.95;86.96
48652;BME280;34442;52.362;-1.302;2023-03-04T06:23:15;101740.94;;;6.87;87.62
48652;BME280;34442;52.362;-1.302;2023-03-04T06:25:41;101749.56;;;6.99;86.65
48652;BME280;34442;52.362;-1.302;2023-03-04T06:28:07;101735.88;;;6.84;87.16
48652;BME280;34442;52.362;-1.302;2023-03-04T06:30:32;101754.81;;;6.91;87.22
48652;BME280;34442;52.362;-1.302;2023-03-04T06:32:57;101747.75;;;7.00;85.92
48652;BME280;34442;52.362;-1.302;2023-03-04T06:35:23;101749.56;;;6.99;86.38
48652;BME280;34442;52.362;-1.302;2023-03-04T06:37:49;101751.81;;;7.04;85.79
48652;BME280;34442;52.362;-1.302;2023-03-04T06:40:14;101747.53;;;7.11;86.25
48652;BME280;34442;52.362;-1.302;2023-03-04T06:42:39;101753.88;;;7.10;86.02
48652;BME280;34442;52.362;-1.302;2023-03-04T06:45:06;101756.84;;;7.07;86.73
48652;BME280;34442;52.362;-1.302;2023-03-04T06:47:32;101759.50;;;7.07;86.44
48652;BME280;34442;52.362;-1.302;2023-03-04T06:49:57;101757.94;;;7.14;86.46
48652;BME280;34442;52.362;-1.302;2023-03-04T06:52:23;101754.88;;;7.09;87.20
48652;BME280;34442;52.362;-1.302;2023-03-04T06:54:48;101762.97;;;6.89;87.67
48652;BME280;34442;52.362;-1.302;2023-03-04T06:57:14;101767.03;;;6.93;87.84
48652;BME280;34442;52.362;-1.302;2023-03-04T06:59:39;101772.88;;;7.07;87.28
48652;BME280;34442;52.362;-1.302;2023-03-04T07:02:05;101783.38;;;6.90;87.39
48652;BME280;34442;52.362;-1.302;2023-03-04T07:04:31;101778.75;;;6.83;86.35
48652;BME280;34442;52.362;-1.302;2023-03-04T07:06:57;101770.25;;;6.97;86.42
48652;BME280;34442;52.362;-1.302;2023-03-04T07:09:22;101777.56;;;6.95;86.19
48652;BME280;34442;52.362;-1.302;2023-03-04T07:11:48;101770.66;;;7.02;86.19
48652;BME280;34442;52.362;-1.302;2023-03-04T07:14:13;101774.41;;;7.09;85.86
48652;BME280;34442;52.362;-1.302;2023-03-04T07:16:38;101780.25;;;6.95;86.19
48652;BME280;34442;52.362;-1.302;2023-03-04T07:19:04;101781.91;;;7.06;86.98
48652;BME280;34442;52.362;-1.302;2023-03-04T07:21:29;101775.44;;;6.99;86.59
48652;BME280;34442;52.362;-1.302;2023-03-04T07:23:55;101780.84;;;6.89;87.74
48652;BME280;34442;52.362;-1.302;2023-03-04T07:26:20;101775.41;;;6.81;87.85
48652;BME280;34442;52.362;-1.302;2023-03-04T07:28:46;101775.00;;;7.03;87.40
48652;BME280;34442;52.362;-1.302;2023-03-04T07:31:21;101776.09;;;7.10;87.12
48652;BME280;34442;52.362;-1.302;2023-03-04T07:33:47;101773.13;;;7.13;87.09
48652;BME280;34442;52.362;-1.302;2023-03-04T07:36:12;101780.91;;;7.07;86.95
48652;BME280;34442;52.362;-1.302;2023-03-04T07:38:43;101785.13;;;7.09;87.01
48652;BME280;34442;52.362;-1.302;2023-03-04T07:41:09;101787.09;;;7.07;87.11
48652;BME280;34442;52.362;-1.302;2023-03-04T07:43:34;101783.03;;;7.03;86.76
48652;BME280;34442;52.362;-1.302;2023-03-04T07:46:00;101791.50;;;6.99;87.55
48652;BME280;34442;52.362;-1.302;2023-03-04T07:48:26;101790.44;;;6.91;87.44
48652;BME280;34442;52.362;-1.302;2023-03-04T07:51:10;101789.97;;;6.96;85.97
48652;BME280;34442;52.362;-1.302;2023-03-04T07:53:37;101792.19;;;7.01;86.69
48652;BME280;34442;52.362;-1.302;2023-03-04T07:56:05;101794.13;;;7.08;86.69
48652;BME280;34442;52.362;-1.302;2023-03-04T07:58:30;101797.94;;;7.06;86.86
48652;BME280;34442;52.362;-1.302;2023-03-04T08:00:56;101797.34;;;6.84;87.66
48652;BME280;34442;52.362;-1.302;2023-03-04T08:03:22;101802.75;;;6.65;88.58
48652;BME280;34442;52.362;-1.302;2023-03-04T08:05:47;101800.41;;;6.89;88.15
48652;BME280;34442;52.362;-1.302;2023-03-04T08:08:13;101801.59;;;7.05;87.65
48652;BME280;34442;52.362;-1.302;2023-03-04T08:10:38;101798.72;;;6.88;87.97
48652;BME280;34442;52.362;-1.302;2023-03-04T08:13:05;101796.91;;;6.89;87.21
48652;BME280;34442;52.362;-1.302;2023-03-04T08:15:31;101798.78;;;7.06;86.59
48652;BME280;34442;52.362;-1.302;2023-03-04T08:17:57;101797.44;;;6.92;86.93
48652;BME280;34442;52.362;-1.302;2023-03-04T08:20:23;101796.16;;;6.96;87.12
48652;BME280;34442;52.362;-1.302;2023-03-04T08:22:50;101802.91;;;7.01;86.60
48652;BME280;34442;52.362;-1.302;2023-03-04T08:25:15;101803.69;;;7.11;85.80
48652;BME280;34442;52.362;-1.302;2023-03-04T08:27:40;101805.31;;;7.21;85.51
48652;BME280;34442;52.362;-1.302;2023-03-04T08:30:06;101812.13;;;7.16;86.17
48652;BME280;34442;52.362;-1.302;2023-03-04T08:32:32;101804.00;;;7.08;85.85
48652;BME280;34442;52.362;-1.302;2023-03-04T08:34:57;101798.81;;;7.24;85.46
48652;BME280;34442;52.362;-1.302;2023-03-04T08:37:23;101797.84;;;7.25;85.64
48652;BME280;34442;52.362;-1.302;2023-03-04T08:39:48;101796.69;;;7.28;84.87
48652;BME280;34442;52.362;-1.302;2023-03-04T08:42:13;101801.72;;;7.13;85.96
48652;BME280;34442;52.362;-1.302;2023-03-04T08:44:40;101799.22;;;7.29;85.03
48652;BME280;34442;52.362;-1.302;2023-03-04T08:47:05;101804.66;;;7.37;85.06
48652;BME280;34442;52.362;-1.302;2023-03-04T08:49:33;101802.00;;;7.37;84.56
48652;BME280;34442;52.362;-1.302;2023-03-04T08:51:58;101801.91;;;7.29;85.39
48652;BME280;34442;52.362;-1.302;2023-03-04T08:54:24;101806.94;;;7.32;85.58
48652;BME280;34442;52.362;-1.302;2023-03-04T08:56:49;101806.06;;;7.41;84.64
48652;BME280;34442;52.362;-1.302;2023-03-04T08:59:15;101804.03;;;7.26;84.35
48652;BME280;34442;52.362;-1.302;2023-03-04T09:01:40;101808.44;;;7.17;85.73
48652;BME280;34442;52.362;-1.302;2023-03-04T09:04:06;101800.25;;;7.18;86.12
48652;BME280;34442;52.362;-1.302;2023-03-04T09:06:31;101802.00;;;7.37;85.62
48652;BME280;34442;52.362;-1.302;2023-03-04T09:08:56;101797.22;;;7.31;85.45
48652;BME280;34442;52.362;-1.302;2023-03-04T09:11:22;101793.72;;;7.49;84.70
48652;BME280;34442;52.362;-1.302;2023-03-04T09:13:47;101794.50;;;7.41;84.92
48652;BME280;34442;52.362;-1.302;2023-03-04T09:16:15;101790.13;;;7.40;85.24
48652;BME280;34442;52.362;-1.302;2023-03-04T09:18:41;101789.44;;;7.38;84.35
48652;BME280;34442;52.362;-1.302;2023-03-04T09:21:07;101802.97;;;7.36;85.06
48652;BME280;34442;52.362;-1.302;2023-03-04T09:23:33;101806.25;;;7.30;84.81
48652;BME280;34442;52.362;-1.302;2023-03-04T09:25:58;101803.66;;;7.38;84.71
48652;BME280;34442;52.362;-1.302;2023-03-04T09:28:24;101798.69;;;7.43;84.61
48652;BME280;34442;52.362;-1.302;2023-03-04T09:30:49;101804.41;;;7.31;84.56
48652;BME280;34442;52.362;-1.302;2023-03-04T09:33:15;101804.13;;;7.52;84.13
48652;BME280;34442;52.362;-1.302;2023-03-04T09:35:40;101797.03;;;7.60;83.65
48652;BME280;34442;52.362;-1.302;2023-03-04T09:38:06;101797.78;;;7.53;84.37
48652;BME280;34442;52.362;-1.302;2023-03-04T09:40:52;101797.09;;;7.51;80.50
48652;BME280;34442;52.362;-1.302;2023-03-04T09:43:20;101795.97;;;7.53;83.77
48652;BME280;34442;52.362;-1.302;2023-03-04T09:45:50;101803.31;;;7.69;83.59
48652;BME280;34442;52.362;-1.302;2023-03-04T09:48:21;101798.56;;;7.63;83.83
48652;BME280;34442;52.362;-1.302;2023-03-04T09:54:09;101798.63;;;7.35;80.89
48652;BME280;34442;52.362;-1.302;2023-03-04T09:56:37;101793.22;;;7.63;83.29
48652;BME280;34442;52.362;-1.302;2023-03-04T09:59:18;101794.13;;;7.54;83.05
48652;BME280;34442;52.362;-1.302;2023-03-04T10:01:57;101797.03;;;7.60;82.75
48652;BME280;34442;52.362;-1.302;2023-03-04T10:04:47;101790.78;;;7.69;81.97
48652;BME280;34442;52.362;-1.302;2023-03-04T10:07:20;101786.72;;;7.65;83.20
48652;BME280;34442;52.362;-1.302;2023-03-04T10:09:55;101791.53;;;7.62;83.49
48652;BME280;34442;52.362;-1.302;2023-03-04T10:12:26;101796.91;;;7.62;82.84
48652;BME280;34442;52.362;-1.302;2023-03-04T10:15:02;101789.25;;;7.67;83.37
48652;BME280;34442;52.362;-1.302;2023-03-04T10:17:36;101785.94;;;7.73;82.82
48652;BME280;34442;52.362;-1.302;2023-03-04T10:20:08;101785.72;;;7.66;84.03
48652;BME280;34442;52.362;-1.302;2023-03-04T10:22:44;101789.16;;;7.59;83.05
48652;BME280;34442;52.362;-1.302;2023-03-04T10:25:15;101779.66;;;7.64;77.45
48652;BME280;34442;52.362;-1.302;2023-03-04T10:27:41;101783.50;;;7.80;82.03
48652;BME280;34442;52.362;-1.302;2023-03-04T10:33:15;101784.19;;;7.64;83.06
48652;BME280;34442;52.362;-1.302;2023-03-04T10:35:44;101774.25;;;7.74;83.18
48652;BME280;34442;52.362;-1.302;2023-03-04T10:38:12;101773.69;;;7.53;83.62
48652;BME280;34442;52.362;-1.302;2023-03-04T10:40:40;101787.19;;;7.79;82.81
48652;BME280;34442;52.362;-1.302;2023-03-04T10:43:19;101780.53;;;7.83;81.31
48652;BME280;34442;52.362;-1.302;2023-03-04T10:45:45;101776.00;;;7.83;82.78
48652;BME280;34442;52.362;-1.302;2023-03-04T10:48:41;101776.50;;;8.05;79.68
48652;BME280;34442;52.362;-1.302;2023-03-04T10:51:11;101780.81;;;7.97;81.35
48652;BME280;34442;52.362;-1.302;2023-03-04T10:53:40;101783.59;;;8.14;82.14
48652;BME280;34442;52.362;-1.302;2023-03-04T10:59:42;101780.97;;;7.96;78.92
48652;BME280;34442;52.362;-1.302;2023-03-04T11:02:16;101784.00;;;8.01;79.71
48652;BME280;34442;52.362;-1.302;2023-03-04T11:04:42;101790.59;;;8.07;81.45
48652;BME280;34442;52.362;-1.302;2023-03-04T11:07:14;101783.91;;;8.29;81.74
48652;BME280;34442;52.362;-1.302;2023-03-04T11:09:39;101790.75;;;8.05;82.88
48652;BME280;34442;52.362;-1.302;2023-03-04T11:12:13;101781.38;;;8.27;80.79
48652;BME280;34442;52.362;-1.302;2023-03-04T11:14:47;101782.56;;;8.07;80.01
48652;BME280;34442;52.362;-1.302;2023-03-04T11:17:24;101774.91;;;8.12;80.54
48652;BME280;34442;52.362;-1.302;2023-03-04T11:22:23;101771.44;;;8.19;81.04
48652;BME280;34442;52.362;-1.302;2023-03-04T11:25:02;101770.97;;;8.24;77.73
48652;BME280;34442;52.362;-1.302;2023-03-04T11:27:43;101759.31;;;8.33;76.98
48652;BME280;34442;52.362;-1.302;2023-03-04T11:30:33;101757.84;;;8.39;73.11
48652;BME280;34442;52.362;-1.302;2023-03-04T11:33:23;101754.56;;;8.45;75.81
48652;BME280;34442;52.362;-1.302;2023-03-04T11:38:41;101760.44;;;8.31;77.56
48652;BME280;34442;52.362;-1.302;2023-03-04T11:41:24;101754.38;;;8.47;75.84
48652;BME280;34442;52.362;-1.302;2023-03-04T11:43:52;101745.38;;;8.48;72.11
48652;BME280;34442;52.362;-1.302;2023-03-04T11:46:47;101741.03;;;8.55;75.63
48652;BME280;34442;52.362;-1.302;2023-03-04T11:55:24;101736.69;;;8.54;76.09
48652;BME280;34442;52.362;-1.302;2023-03-04T12:01:09;101721.78;;;8.33;75.23
48652;BME280;34442;52.362;-1.302;2023-03-04T12:03:42;101723.75;;;8.49;77.70
48652;BME280;34442;52.362;-1.302;2023-03-04T12:09:25;101722.94;;;8.49;75.07
48652;BME280;34442;52.362;-1.302;2023-03-04T12:28:52;101688.53;;;8.78;68.60
48652;BME280;34442;52.362;-1.302;2023-03-04T12:31:35;101692.25;;;8.85;72.57
48652;BME280;34442;52.362;-1.302;2023-03-04T12:36:51;101680.41;;;8.54;74.77
48652;BME280;34442;52.362;-1.302;2023-03-04T12:39:31;101683.06;;;8.54;75.31
48652;BME280;34442;52.362;-1.302;2023-03-04T12:50:41;101659.09;;;8.44;75.43
48652;BME280;34442;52.362;-1.302;2023-03-04T12:53:25;101662.53;;;8.36;74.23
48652;BME280;34442;52.362;-1.302;2023-03-04T12:55:56;101654.25;;;8.48;75.88
48652;BME280;34442;52.362;-1.302;2023-03-04T12:58:27;101656.25;;;8.45;76.69
48652;BME280;34442;52.362;-1.302;2023-03-04T13:03:59;101654.84;;;8.84;72.27
48652;BME280;34442;52.362;-1.302;2023-03-04T13:09:18;101644.56;;;8.63;72.00
48652;BME280;34442;52.362;-1.302;2023-03-04T13:16:40;101634.59;;;8.39;75.82
48652;BME280;34442;52.362;-1.302;2023-03-04T13:24:58;101632.88;;;8.72;74.82
48652;BME280;34442;52.362;-1.302;2023-03-04T13:27:50;101638.84;;;8.50;71.50
48652;BME280;34442;52.362;-1.302;2023-03-04T13:38:21;101629.28;;;8.55;72.49
48652;BME280;34442;52.362;-1.302;2023-03-04T13:43:41;101632.94;;;8.12;74.39
48652;BME280;34442;52.362;-1.302;2023-03-04T13:48:44;101631.59;;;8.42;74.86
48652;BME280;34442;52.362;-1.302;2023-03-04T13:51:25;101624.22;;;8.10;73.84
48652;BME280;34442;52.362;-1.302;2023-03-04T13:53:54;101620.44;;;8.20;75.85
48652;BME280;34442;52.362;-1.302;2023-03-04T14:01:56;101620.97;;;8.66;73.40
48652;BME280;34442;52.362;-1.302;2023-03-04T14:06:55;101609.03;;;8.53;73.32
48652;BME280;34442;52.362;-1.302;2023-03-04T14:09:27;101608.19;;;8.44;73.46
48652;BME280;34442;52.362;-1.302;2023-03-04T14:11:55;101604.84;;;8.50;73.99
48652;BME280;34442;52.362;-1.302;2023-03-04T14:14:29;101601.84;;;8.19;73.91
48652;BME280;34442;52.362;-1.302;2023-03-04T14:17:00;101601.47;;;8.14;74.34
48652;BME280;34442;52.362;-1.302;2023-03-04T14:19:29;101597.88;;;8.31;74.28
48652;BME280;34442;52.362;-1.302;2023-03-04T14:21:56;101589.94;;;8.13;74.80
48652;BME280;34442;52.362;-1.302;2023-03-04T14:24:23;101595.44;;;8.12;74.74
48652;BME280;34442;52.362;-1.302;2023-03-04T14:26:49;101586.53;;;8.37;74.06
48652;BME280;34442;52.362;-1.302;2023-03-04T14:29:28;101584.84;;;8.36;74.54
48652;BME280;34442;52.362;-1.302;2023-03-04T14:31:57;101581.47;;;8.34;74.24